createdAt,value
2018-08-17T00:00:40.712Z,18.3
2018-08-17T00:01:42.730Z,18.4
2018-08-17T00:02:45.300Z,18.5
2018-08-17T00:03:47.307Z,18.5
2018-08-17T00:04:49.316Z,18.5
2018-08-17T00:05:51.323Z,18.5
2018-08-17T00:06:53.617Z,18.5
2018-08-17T00:07:55.625Z,18.5
2018-08-17T00:08:58.198Z,18.5
2018-08-17T00:10:00.485Z,18.5
2018-08-17T00:11:02.777Z,18.5
2018-08-17T00:12:04.785Z,18.5
2018-08-17T00:13:06.795Z,18.5
2018-08-17T00:14:08.804Z,18.5
2018-08-17T00:15:10.815Z,18.5
2018-08-17T00:16:12.823Z,18.5
2018-08-17T00:17:14.832Z,18.5
2018-08-17T00:18:17.122Z,18.5
2018-08-17T00:19:19.130Z,18.6
2018-08-17T00:20:21.139Z,18.6
2018-08-17T00:21:23.149Z,18.6
2018-08-17T00:22:25.156Z,18.6
2018-08-17T00:23:27.168Z,18.6
2018-08-17T00:24:29.477Z,18.6
2018-08-17T00:25:31.490Z,18.6
2018-08-17T00:26:33.498Z,18.6
2018-08-17T00:27:35.508Z,18.6
2018-08-17T00:28:37.800Z,18.6
2018-08-17T00:29:39.808Z,18.5
2018-08-17T00:30:42.096Z,18.6
2018-08-17T00:31:44.488Z,18.7
2018-08-17T00:32:46.500Z,18.7
2018-08-17T00:33:48.508Z,18.7
2018-08-17T00:34:50.525Z,18.7
2018-08-17T00:35:53.119Z,18.7
2018-08-17T00:36:55.157Z,18.7
2018-08-17T00:37:57.189Z,18.7
2018-08-17T00:38:59.215Z,18.6
2018-08-17T00:40:01.259Z,18.7
2018-08-17T00:41:03.292Z,18.6
2018-08-17T00:42:05.324Z,18.5
2018-08-17T00:43:07.362Z,18.5
2018-08-17T00:44:09.388Z,18.6
2018-08-17T00:45:11.710Z,18.6
2018-08-17T00:46:13.744Z,18.6
2018-08-17T00:47:16.085Z,18.6
2018-08-17T00:48:18.110Z,18.7
2018-08-17T00:49:20.153Z,18.8
2018-08-17T00:50:22.190Z,18.7
2018-08-17T00:51:24.220Z,18.7
2018-08-17T00:52:26.311Z,18.7
2018-08-17T00:53:28.586Z,18.7
2018-08-17T00:54:30.627Z,18.7
2018-08-17T00:55:32.958Z,18.7
2018-08-17T00:56:34.981Z,18.7
2018-08-17T00:57:37.004Z,18.7
2018-08-17T00:58:39.045Z,18.7
2018-08-17T00:59:41.671Z,18.7
2018-08-17T01:00:43.997Z,18.7
2018-08-17T01:01:46.043Z,18.7
2018-08-17T01:02:48.077Z,18.7
2018-08-17T01:03:50.107Z,18.7
2018-08-17T01:04:52.142Z,18.7
2018-08-17T01:05:54.191Z,18.7
2018-08-17T01:06:56.222Z,18.7
2018-08-17T01:07:58.259Z,18.7
2018-08-17T01:09:00.294Z,18.7
2018-08-17T01:10:02.321Z,18.7
2018-08-17T01:11:04.741Z,18.8
2018-08-17T01:12:06.781Z,18.7
2018-08-17T01:13:08.805Z,18.7
2018-08-17T01:14:11.131Z,18.8
2018-08-17T01:15:13.841Z,18.8
2018-08-17T01:16:15.875Z,18.8
2018-08-17T01:17:17.920Z,18.8
2018-08-17T01:18:19.952Z,18.8
2018-08-17T01:19:21.985Z,18.8
2018-08-17T01:20:24.016Z,18.8
2018-08-17T01:21:26.072Z,18.8
2018-08-17T01:22:28.486Z,18.7
2018-08-17T01:23:30.521Z,18.7
2018-08-17T01:24:32.557Z,18.7
2018-08-17T01:25:34.580Z,18.7
2018-08-17T01:26:36.627Z,18.7
2018-08-17T01:27:38.656Z,18.7
2018-08-17T01:28:40.706Z,18.7
2018-08-17T01:29:43.005Z,18.7
2018-08-17T01:30:45.050Z,18.7
2018-08-17T01:31:47.366Z,18.7
2018-08-17T01:32:49.792Z,18.7
2018-08-17T01:33:51.820Z,18.7
2018-08-17T01:34:53.869Z,18.7
2018-08-17T01:35:55.906Z,18.7
2018-08-17T01:36:57.926Z,18.7
2018-08-17T01:37:59.961Z,18.7
2018-08-17T01:39:02.005Z,18.7
2018-08-17T01:40:04.043Z,18.7
2018-08-17T01:41:06.076Z,18.7
2018-08-17T01:42:08.392Z,18.7
2018-08-17T01:43:10.417Z,18.7
2018-08-17T01:44:12.447Z,18.7
2018-08-17T01:45:14.774Z,18.7
2018-08-17T01:46:16.801Z,18.7
2018-08-17T01:47:18.841Z,18.7
2018-08-17T01:48:20.875Z,18.7
2018-08-17T01:49:22.912Z,18.7
2018-08-17T01:50:24.957Z,18.7
2018-08-17T01:51:26.986Z,18.7
2018-08-17T01:52:29.018Z,18.7
2018-08-17T01:53:31.061Z,18.7
2018-08-17T01:54:33.403Z,18.7
2018-08-17T01:55:35.427Z,18.7
2018-08-17T01:56:37.458Z,18.7
2018-08-17T01:57:39.497Z,18.7
2018-08-17T01:58:41.519Z,18.7
2018-08-17T01:59:43.561Z,18.6
2018-08-17T02:00:45.595Z,18.6
2018-08-17T02:01:47.634Z,18.7
2018-08-17T02:02:49.660Z,18.7
2018-08-17T02:03:51.710Z,18.7
2018-08-17T02:04:53.745Z,18.6
2018-08-17T02:05:55.778Z,18.6
2018-08-17T02:06:57.820Z,18.6
2018-08-17T02:07:59.841Z,18.7
2018-08-17T02:09:01.878Z,18.7
2018-08-17T02:10:04.207Z,18.6
2018-08-17T02:11:06.246Z,18.6
2018-08-17T02:12:08.266Z,18.6
2018-08-17T02:13:10.301Z,18.6
2018-08-17T02:14:12.616Z,18.6
2018-08-17T02:15:14.653Z,18.6
2018-08-17T02:16:16.698Z,18.6
2018-08-17T02:17:18.736Z,18.5
2018-08-17T02:18:20.764Z,18.5
2018-08-17T02:19:22.805Z,18.6
2018-08-17T02:20:24.834Z,18.6
2018-08-17T02:21:26.868Z,18.5
2018-08-17T02:22:29.202Z,18.5
2018-08-17T02:23:31.519Z,18.5
2018-08-17T02:24:33.626Z,18.5
2018-08-17T02:25:35.591Z,18.5
2018-08-17T02:26:38.013Z,18.5
2018-08-17T02:27:40.036Z,18.5
2018-08-17T02:28:42.080Z,18.5
2018-08-17T02:29:44.114Z,18.5
2018-08-17T02:30:46.149Z,18.5
2018-08-17T02:31:48.488Z,18.5
2018-08-17T02:32:50.511Z,18.5
2018-08-17T02:33:52.541Z,18.4
2018-08-17T02:34:54.570Z,18.4
2018-08-17T02:35:56.616Z,18.4
2018-08-17T02:36:58.637Z,18.4
2018-08-17T02:38:00.670Z,18.4
2018-08-17T02:39:02.711Z,18.4
2018-08-17T02:40:05.019Z,18.4
2018-08-17T02:41:07.064Z,18.4
2018-08-17T02:42:09.384Z,18.4
2018-08-17T02:43:11.694Z,18.4
2018-08-17T02:44:13.729Z,18.3
2018-08-17T02:45:15.777Z,18.3
2018-08-17T02:46:17.819Z,18.3
2018-08-17T02:47:20.137Z,18.3
2018-08-17T02:48:22.172Z,18.3
2018-08-17T02:49:24.219Z,18.3
2018-08-17T02:50:26.550Z,18.3
2018-08-17T02:51:28.859Z,18.3
2018-08-17T02:52:30.906Z,18.3
2018-08-17T02:53:32.933Z,18.3
2018-08-17T02:54:34.973Z,18.3
2018-08-17T02:55:37.296Z,18.3
2018-08-17T02:56:39.323Z,18.3
2018-08-17T02:57:41.961Z,18.3
2018-08-17T02:58:44.291Z,18.3
2018-08-17T02:59:46.335Z,18.2
2018-08-17T03:00:49.035Z,18.2
2018-08-17T03:01:51.074Z,18.2
2018-08-17T03:02:53.825Z,18.2
2018-08-17T03:03:56.138Z,18.3
2018-08-17T03:04:58.186Z,18.3
2018-08-17T03:06:00.598Z,18.3
2018-08-17T03:07:02.631Z,18.3
2018-08-17T03:08:04.659Z,18.3
2018-08-17T03:09:06.706Z,18.3
2018-08-17T03:10:08.730Z,18.3
2018-08-17T03:11:10.767Z,18.3
2018-08-17T03:12:12.808Z,18.3
2018-08-17T03:13:15.888Z,18.3
2018-08-17T03:14:18.219Z,18.3
2018-08-17T03:15:20.251Z,18.3
2018-08-17T03:16:22.277Z,18.3
2018-08-17T03:17:24.699Z,18.3
2018-08-17T03:18:26.741Z,18.3
2018-08-17T03:19:28.777Z,18.3
2018-08-17T03:20:30.818Z,18.3
2018-08-17T03:21:32.854Z,18.3
2018-08-17T03:22:35.603Z,18.3
2018-08-17T03:23:37.592Z,18.3
2018-08-17T03:24:39.934Z,18.3
2018-08-17T03:25:41.962Z,18.3
2018-08-17T03:26:44.279Z,18.3
2018-08-17T03:27:46.312Z,18.3
2018-08-17T03:28:48.737Z,18.2
2018-08-17T03:29:51.372Z,18.2
2018-08-17T03:30:53.700Z,18.3
2018-08-17T03:31:56.039Z,18.3
2018-08-17T03:32:58.075Z,18.3
2018-08-17T03:34:00.424Z,18.3
2018-08-17T03:35:02.834Z,18.3
2018-08-17T03:36:05.249Z,18.2
2018-08-17T03:37:08.128Z,18.2
2018-08-17T03:38:10.159Z,18.2
2018-08-17T03:39:12.148Z,18.2
2018-08-17T03:40:14.184Z,18.2
2018-08-17T03:41:16.508Z,18.2
2018-08-17T03:42:18.534Z,18.2
2018-08-17T03:43:20.580Z,18.2
2018-08-17T03:44:22.620Z,18.2
2018-08-17T03:45:24.949Z,18.2
2018-08-17T03:46:27.274Z,18.2
2018-08-17T03:47:29.298Z,18.2
2018-08-17T03:48:31.333Z,18.2
2018-08-17T03:49:33.373Z,18.2
2018-08-17T03:50:35.406Z,18.3
2018-08-17T03:51:37.431Z,18.3
2018-08-17T03:52:40.034Z,18.3
2018-08-17T03:53:42.067Z,18.3
2018-08-17T03:54:44.100Z,18.3
2018-08-17T03:55:46.144Z,18.3
2018-08-17T03:56:48.178Z,18.3
2018-08-17T03:57:50.215Z,18.3
2018-08-17T03:58:52.261Z,18.3
2018-08-17T03:59:54.288Z,18.3
2018-08-17T04:00:56.320Z,18.3
2018-08-17T04:01:58.347Z,18.2
2018-08-17T04:03:00.389Z,18.3
2018-08-17T04:04:02.419Z,18.3
2018-08-17T04:05:04.451Z,18.3
2018-08-17T04:06:06.479Z,18.3
2018-08-17T04:07:08.524Z,18.3
2018-08-17T04:08:10.548Z,18.4
2018-08-17T04:09:12.586Z,18.4
2018-08-17T04:10:14.624Z,18.4
2018-08-17T04:11:16.646Z,18.4
2018-08-17T04:12:18.988Z,18.4
2018-08-17T04:13:21.027Z,18.4
2018-08-17T04:14:23.446Z,18.4
2018-08-17T04:15:25.495Z,18.4
2018-08-17T04:16:27.877Z,18.5
2018-08-17T04:17:29.911Z,18.5
2018-08-17T04:18:31.939Z,18.5
2018-08-17T04:19:34.268Z,18.5
2018-08-17T04:20:36.577Z,18.5
2018-08-17T04:21:38.997Z,18.6
2018-08-17T04:22:41.035Z,18.6
2018-08-17T04:23:43.116Z,18.6
2018-08-17T04:24:45.093Z,18.6
2018-08-17T04:25:47.131Z,18.6
2018-08-17T04:26:49.167Z,18.6
2018-08-17T04:27:51.200Z,18.5
2018-08-17T04:28:53.535Z,18.5
2018-08-17T04:29:55.570Z,18.5
2018-08-17T04:30:57.598Z,18.6
2018-08-17T04:31:59.642Z,18.6
2018-08-17T04:33:01.673Z,18.6
2018-08-17T04:34:03.706Z,18.5
2018-08-17T04:35:05.745Z,18.5
2018-08-17T04:36:07.766Z,18.5
2018-08-17T04:37:09.808Z,18.4
2018-08-17T04:38:12.138Z,18.5
2018-08-17T04:39:14.752Z,18.5
2018-08-17T04:40:17.078Z,18.4
2018-08-17T04:41:19.105Z,18.5
2018-08-17T04:42:21.140Z,18.5
2018-08-17T04:43:23.175Z,18.5
2018-08-17T04:44:25.589Z,18.5
2018-08-17T04:45:27.919Z,18.5
2018-08-17T04:46:29.957Z,18.5
2018-08-17T04:47:32.000Z,18.5
2018-08-17T04:48:34.022Z,18.5
2018-08-17T04:49:36.063Z,18.5
2018-08-17T04:50:38.094Z,18.5
2018-08-17T04:51:40.124Z,18.5
2018-08-17T04:52:42.172Z,18.5
2018-08-17T04:53:44.192Z,18.5
2018-08-17T04:54:46.898Z,18.5
2018-08-17T04:55:48.941Z,18.5
2018-08-17T04:56:50.982Z,18.5
2018-08-17T04:57:53.005Z,18.5
2018-08-17T04:58:55.039Z,18.5
2018-08-17T04:59:57.077Z,18.5
2018-08-17T05:00:59.112Z,18.5
2018-08-17T05:02:01.160Z,18.5
2018-08-17T05:03:03.196Z,18.5
2018-08-17T05:04:05.812Z,18.5
2018-08-17T05:05:07.859Z,18.5
2018-08-17T05:06:09.890Z,18.5
2018-08-17T05:07:12.211Z,18.5
2018-08-17T05:08:14.295Z,18.5
2018-08-17T05:09:16.322Z,18.5
2018-08-17T05:10:18.363Z,18.5
2018-08-17T05:11:20.396Z,18.5
2018-08-17T05:12:22.724Z,18.6
2018-08-17T05:13:24.748Z,18.6
2018-08-17T05:14:26.795Z,18.6
2018-08-17T05:15:29.116Z,18.6
2018-08-17T05:16:31.441Z,18.7
2018-08-17T05:17:33.755Z,18.7
2018-08-17T05:18:35.799Z,18.8
2018-08-17T05:19:37.874Z,18.8
2018-08-17T05:20:40.195Z,18.8
2018-08-17T05:21:42.787Z,18.8
2018-08-17T05:22:45.116Z,18.9
2018-08-17T05:23:47.151Z,18.9
2018-08-17T05:24:49.179Z,19
2018-08-17T05:25:51.223Z,19
2018-08-17T05:26:53.249Z,19
2018-08-17T05:27:55.282Z,19
2018-08-17T05:28:57.325Z,19
2018-08-17T05:29:59.663Z,19
2018-08-17T05:31:02.357Z,19
2018-08-17T05:32:04.396Z,19
2018-08-17T05:33:06.437Z,19.1
2018-08-17T05:34:08.471Z,19.1
2018-08-17T05:35:10.517Z,19.2
2018-08-17T05:36:12.554Z,19.2
2018-08-17T05:37:14.583Z,19.2
2018-08-17T05:38:16.628Z,19.2
2018-08-17T05:39:18.660Z,19.3
2018-08-17T05:40:21.390Z,19.3
2018-08-17T05:41:23.428Z,19.3
2018-08-17T05:42:25.457Z,19.3
2018-08-17T05:43:27.501Z,19.3
2018-08-17T05:44:29.928Z,19.3
2018-08-17T05:45:31.968Z,19.4
2018-08-17T05:46:33.996Z,19.4
2018-08-17T05:47:36.044Z,19.4
2018-08-17T05:48:38.084Z,19.5
2018-08-17T05:49:40.123Z,19.6
2018-08-17T05:50:42.174Z,19.6
2018-08-17T05:51:44.199Z,19.7
2018-08-17T05:52:46.230Z,19.7
2018-08-17T05:53:48.262Z,19.8
2018-08-17T05:54:51.005Z,19.8
2018-08-17T05:55:53.423Z,19.8
2018-08-17T05:56:55.465Z,19.8
2018-08-17T05:57:57.508Z,19.9
2018-08-17T05:58:59.534Z,19.9
2018-08-17T06:00:01.581Z,19.9
2018-08-17T06:01:03.921Z,20
2018-08-17T06:02:05.950Z,20
2018-08-17T06:03:08.293Z,20.1
2018-08-17T06:04:10.342Z,20.1
2018-08-17T06:05:12.758Z,20.2
2018-08-17T06:06:15.084Z,20.2
2018-08-17T06:07:17.121Z,20.2
2018-08-17T06:08:19.145Z,20.3
2018-08-17T06:09:21.183Z,20.3
2018-08-17T06:10:23.224Z,20.3
2018-08-17T06:11:26.472Z,20.4
2018-08-17T06:12:28.394Z,20.4
2018-08-17T06:13:30.433Z,20.4
2018-08-17T06:14:32.473Z,20.5
2018-08-17T06:15:34.520Z,20.5
2018-08-17T06:16:36.842Z,20.5
2018-08-17T06:17:38.882Z,20.6
2018-08-17T06:18:40.913Z,20.6
2018-08-17T06:19:43.247Z,20.6
2018-08-17T06:20:45.275Z,20.6
2018-08-17T06:21:47.318Z,20.7
2018-08-17T06:22:49.349Z,20.7
2018-08-17T06:23:51.378Z,20.7
2018-08-17T06:24:53.427Z,20.6
2018-08-17T06:25:55.467Z,20.7
2018-08-17T06:26:57.830Z,20.7
2018-08-17T06:27:59.856Z,20.7
2018-08-17T06:29:01.904Z,20.7
2018-08-17T06:30:03.938Z,20.7
2018-08-17T06:31:06.253Z,20.7
2018-08-17T06:32:08.865Z,20.7
2018-08-17T06:33:11.281Z,20.8
2018-08-17T06:34:13.323Z,20.9
2018-08-17T06:35:15.362Z,20.9
2018-08-17T06:36:17.404Z,20.9
2018-08-17T06:37:20.242Z,21
2018-08-17T06:38:22.249Z,21
2018-08-17T06:39:24.588Z,21.1
2018-08-17T06:40:26.943Z,21.1
2018-08-17T06:41:29.257Z,21.1
2018-08-17T06:42:31.297Z,21.2
2018-08-17T06:43:33.337Z,21.3
2018-08-17T06:44:35.366Z,21.3
2018-08-17T06:45:37.411Z,21.4
2018-08-17T06:46:39.734Z,21.4
2018-08-17T06:47:42.051Z,21.4
2018-08-17T06:48:44.099Z,21.5
2018-08-17T06:49:46.132Z,21.4
2018-08-17T06:50:48.219Z,21.4
2018-08-17T06:51:50.681Z,21.5
2018-08-17T06:52:52.730Z,21.6
2018-08-17T06:53:54.758Z,21.7
2018-08-17T06:54:56.795Z,21.6
2018-08-17T06:55:58.835Z,21.5
2018-08-17T06:57:00.887Z,21.6
2018-08-17T06:58:03.207Z,21.8
2018-08-17T06:59:05.247Z,21.8
2018-08-17T07:00:07.295Z,21.8
2018-08-17T07:01:09.365Z,21.8
2018-08-17T07:02:11.373Z,21.8
2018-08-17T07:03:13.415Z,21.8
2018-08-17T07:04:15.453Z,21.8
2018-08-17T07:05:17.503Z,21.8
2018-08-17T07:06:19.531Z,21.8
2018-08-17T07:07:21.571Z,21.9
2018-08-17T07:08:23.903Z,21.9
2018-08-17T07:09:26.413Z,22
2018-08-17T07:10:28.537Z,22.1
2018-08-17T07:11:30.575Z,22
2018-08-17T07:12:32.613Z,22
2018-08-17T07:13:34.652Z,22
2018-08-17T07:14:36.973Z,22.1
2018-08-17T07:15:39.014Z,22
2018-08-17T07:16:41.170Z,21.8
2018-08-17T07:17:43.368Z,21.9
2018-08-17T07:18:45.412Z,21.9
2018-08-17T07:19:47.452Z,21.8
2018-08-17T07:20:49.494Z,21.9
2018-08-17T07:21:51.850Z,21.9
2018-08-17T07:22:53.887Z,21.8
2018-08-17T07:23:55.928Z,21.9
2018-08-17T07:24:57.962Z,21.7
2018-08-17T07:26:00.301Z,21.7
2018-08-17T07:27:02.617Z,21.7
2018-08-17T07:28:05.044Z,21.5
2018-08-17T07:29:07.438Z,21.6
2018-08-17T07:30:09.856Z,21.7
2018-08-17T07:31:12.191Z,21.6
2018-08-17T07:32:14.619Z,21.5
2018-08-17T07:33:16.980Z,21.5
2018-08-17T07:34:19.011Z,21.6
2018-08-17T07:35:21.064Z,21.6
2018-08-17T07:36:23.389Z,21.7
2018-08-17T07:37:25.423Z,21.6
2018-08-17T07:38:27.776Z,21.6
2018-08-17T07:39:29.805Z,21.7
2018-08-17T07:40:31.846Z,21.7
2018-08-17T07:41:33.904Z,21.7
2018-08-17T07:42:35.930Z,21.6
2018-08-17T07:43:37.963Z,21.8
2018-08-17T07:44:40.410Z,21.8
2018-08-17T07:45:42.451Z,22
2018-08-17T07:46:44.490Z,22.1
2018-08-17T07:47:46.628Z,21.9
2018-08-17T07:48:48.583Z,22
2018-08-17T07:49:50.624Z,22
2018-08-17T07:50:52.658Z,22
2018-08-17T07:51:54.697Z,22.1
2018-08-17T07:52:56.745Z,22.2
2018-08-17T07:53:59.069Z,22.3
2018-08-17T07:55:01.120Z,22.3
2018-08-17T07:56:03.152Z,22.3
2018-08-17T07:57:05.195Z,22.3
2018-08-17T07:58:07.617Z,22
2018-08-17T07:59:09.755Z,22
2018-08-17T08:00:12.108Z,22
2018-08-17T08:01:14.530Z,22.1
2018-08-17T08:02:16.571Z,22.2
2018-08-17T08:03:18.601Z,22.2
2018-08-17T08:04:20.650Z,22.2
2018-08-17T08:05:22.688Z,22.2
2018-08-17T08:06:25.037Z,22.1
2018-08-17T08:07:27.061Z,22.2
2018-08-17T08:08:29.115Z,22.2
2018-08-17T08:09:31.744Z,22.2
2018-08-17T08:10:34.136Z,22.3
2018-08-17T08:11:36.192Z,22.4
2018-08-17T08:12:38.222Z,22.6
2018-08-17T08:13:40.374Z,22.8
2018-08-17T08:14:42.330Z,23
2018-08-17T08:15:44.351Z,23
2018-08-17T08:16:46.765Z,23.3
2018-08-17T08:17:48.819Z,23.4
2018-08-17T08:18:50.859Z,23.5
2018-08-17T08:19:52.899Z,23.5
2018-08-17T08:20:54.953Z,23.8
2018-08-17T08:21:56.997Z,23.8
2018-08-17T08:22:59.033Z,23.8
2018-08-17T08:24:01.086Z,23.9
2018-08-17T08:25:03.119Z,24
2018-08-17T08:26:05.188Z,24.1
2018-08-17T08:27:07.203Z,24.2
2018-08-17T08:28:09.234Z,24.3
2018-08-17T08:29:11.667Z,24.3
2018-08-17T08:30:13.706Z,24.4
2018-08-17T08:31:15.754Z,24.6
2018-08-17T08:32:17.800Z,24.6
2018-08-17T08:33:20.225Z,24.4
2018-08-17T08:34:22.268Z,24.7
2018-08-17T08:35:24.598Z,24.9
2018-08-17T08:36:26.652Z,25
2018-08-17T08:37:28.684Z,24.7
2018-08-17T08:38:31.019Z,24.8
2018-08-17T08:39:33.058Z,24.9
2018-08-17T08:40:35.112Z,25
2018-08-17T08:41:37.149Z,24.9
2018-08-17T08:42:39.196Z,25
2018-08-17T08:43:41.629Z,25.2
2018-08-17T08:44:43.949Z,25.1
2018-08-17T08:45:46.041Z,25.1
2018-08-17T08:46:48.336Z,25.2
2018-08-17T08:47:50.655Z,25
2018-08-17T08:48:52.700Z,24.9
2018-08-17T08:49:54.754Z,25
2018-08-17T08:50:57.185Z,24.9
2018-08-17T08:51:59.227Z,24.9
2018-08-17T08:53:01.564Z,24.8
2018-08-17T08:54:03.882Z,24.7
2018-08-17T08:55:06.207Z,24.8
2018-08-17T08:56:08.355Z,24.5
2018-08-17T08:57:10.961Z,24.5
2018-08-17T08:58:13.013Z,24.3
2018-08-17T08:59:15.061Z,24.2
2018-08-17T09:00:17.490Z,24.2
2018-08-17T09:01:19.940Z,24.1
2018-08-17T09:02:21.981Z,24.1
2018-08-17T09:03:24.026Z,24
2018-08-17T09:04:26.065Z,24.1
2018-08-17T09:05:28.117Z,24.4
2018-08-17T09:06:30.174Z,24.4
2018-08-17T09:07:32.597Z,24.4
2018-08-17T09:08:34.644Z,24.4
2018-08-17T09:09:36.701Z,24.4
2018-08-17T09:10:38.735Z,24.8
2018-08-17T09:11:40.782Z,24.8
2018-08-17T09:12:42.823Z,24.7
2018-08-17T09:13:45.395Z,24.5
2018-08-17T09:14:47.389Z,24.5
2018-08-17T09:15:49.438Z,24.2
2018-08-17T09:16:51.771Z,24.2
2018-08-17T09:17:53.802Z,24.4
2018-08-17T09:18:55.857Z,24.3
2018-08-17T09:19:57.905Z,24.5
2018-08-17T09:21:00.226Z,24.4
2018-08-17T09:22:02.570Z,24.5
2018-08-17T09:23:04.907Z,24.4
2018-08-17T09:24:07.652Z,24.5
2018-08-17T09:25:09.697Z,24.5
2018-08-17T09:26:11.745Z,24.4
2018-08-17T09:27:14.071Z,24.4
2018-08-17T09:28:16.399Z,24
2018-08-17T09:29:18.516Z,24.1
2018-08-17T09:30:20.490Z,24.2
2018-08-17T09:31:22.925Z,24
2018-08-17T09:32:24.970Z,24
2018-08-17T09:33:27.015Z,24.2
2018-08-17T09:34:29.067Z,24.1
2018-08-17T09:35:31.498Z,24.1
2018-08-17T09:36:33.851Z,24.3
2018-08-17T09:37:35.895Z,24.7
2018-08-17T09:38:37.951Z,24.5
2018-08-17T09:39:39.986Z,24.3
2018-08-17T09:40:42.034Z,24.5
2018-08-17T09:41:44.204Z,24.8
2018-08-17T09:42:46.127Z,25.3
2018-08-17T09:43:48.163Z,25
2018-08-17T09:44:50.209Z,24.9
2018-08-17T09:45:52.555Z,25.1
2018-08-17T09:46:54.612Z,24.7
2018-08-17T09:47:56.646Z,24.7
2018-08-17T09:48:58.692Z,24.6
2018-08-17T09:50:00.741Z,24.5
2018-08-17T09:51:03.063Z,24.3
2018-08-17T09:52:05.121Z,24.2
2018-08-17T09:53:07.172Z,24.5
2018-08-17T09:54:09.498Z,24.8
2018-08-17T09:55:11.543Z,24.8
2018-08-17T09:56:13.601Z,24.7
2018-08-17T09:57:15.646Z,24.4
2018-08-17T09:58:18.371Z,24.3
2018-08-17T09:59:20.425Z,24.5
2018-08-17T10:00:22.448Z,24.8
2018-08-17T10:01:24.497Z,25.1
2018-08-17T10:02:26.548Z,25.1
2018-08-17T10:03:28.975Z,25
2018-08-17T10:04:31.617Z,25
2018-08-17T10:05:33.667Z,25
2018-08-17T10:06:35.715Z,25.2
2018-08-17T10:07:38.053Z,25.1
2018-08-17T10:08:40.095Z,25
2018-08-17T10:09:42.158Z,24.9
2018-08-17T10:10:44.188Z,24.9
2018-08-17T10:11:46.242Z,24.7
2018-08-17T10:12:48.280Z,24.5
2018-08-17T10:13:50.329Z,24.6
2018-08-17T10:14:52.379Z,24.6
2018-08-17T10:15:54.500Z,24.7
2018-08-17T10:16:56.469Z,24.9
2018-08-17T10:17:58.900Z,25.2
2018-08-17T10:19:00.947Z,25.3
2018-08-17T10:20:03.651Z,25.4
2018-08-17T10:21:05.873Z,25.7
2018-08-17T10:22:09.632Z,25.9
2018-08-17T10:23:11.902Z,26.1
2018-08-17T10:24:13.943Z,26
2018-08-17T10:25:15.997Z,26.2
2018-08-17T10:26:18.041Z,26.3
2018-08-17T10:27:20.469Z,26.6
2018-08-17T10:28:22.515Z,26.7
2018-08-17T10:29:24.957Z,27.1
2018-08-17T10:30:27.005Z,26.9
2018-08-17T10:31:29.051Z,26.7
2018-08-17T10:32:31.399Z,27.2
2018-08-17T10:33:33.438Z,27.3
2018-08-17T10:34:35.784Z,27.1
2018-08-17T10:35:37.847Z,27.2
2018-08-17T10:36:39.888Z,26.9
2018-08-17T10:37:42.223Z,26.6
2018-08-17T10:38:44.275Z,26.5
2018-08-17T10:39:46.324Z,26.4
2018-08-17T10:40:48.851Z,26.3
2018-08-17T10:41:51.235Z,26.3
2018-08-17T10:42:53.569Z,26.5
2018-08-17T10:43:55.615Z,26.6
2018-08-17T10:44:57.676Z,26.8
2018-08-17T10:45:59.718Z,26.7
2018-08-17T10:47:01.769Z,26.6
2018-08-17T10:48:03.820Z,26.6
2018-08-17T10:49:06.178Z,26.4
2018-08-17T10:50:08.220Z,27.2
2018-08-17T10:51:10.273Z,27.4
2018-08-17T10:52:12.337Z,27.6
2018-08-17T10:53:14.655Z,27.1
2018-08-17T10:54:16.719Z,27
2018-08-17T10:55:19.058Z,27.1
2018-08-17T10:56:21.103Z,27.5
2018-08-17T10:57:23.164Z,27.5
2018-08-17T10:58:25.207Z,27.3
2018-08-17T10:59:27.536Z,27.5
2018-08-17T11:00:29.593Z,27.4
2018-08-17T11:01:31.645Z,27.1
2018-08-17T11:02:33.689Z,27.1
2018-08-17T11:03:35.741Z,27.1
2018-08-17T11:04:37.795Z,27.7
2018-08-17T11:05:39.848Z,27.4
2018-08-17T11:06:42.485Z,27.5
2018-08-17T11:07:44.539Z,27.7
2018-08-17T11:08:46.874Z,27.9
2018-08-17T11:09:48.939Z,27.5
2018-08-17T11:10:51.700Z,27.5
2018-08-17T11:11:54.006Z,27.3
2018-08-17T11:12:56.351Z,27.2
2018-08-17T11:13:58.691Z,27.5
2018-08-17T11:15:00.742Z,27.6
2018-08-17T11:16:02.793Z,27.3
2018-08-17T11:17:04.951Z,27.5
2018-08-17T11:18:06.897Z,27.5
2018-08-17T11:19:08.959Z,27.7
2018-08-17T11:20:11.319Z,27.9
2018-08-17T11:21:13.372Z,28
2018-08-17T11:22:15.439Z,28
2018-08-17T11:23:17.488Z,27.9
2018-08-17T11:24:19.819Z,27.3
2018-08-17T11:25:21.877Z,27
2018-08-17T11:26:24.225Z,26.7
2018-08-17T11:27:26.270Z,26.7
2018-08-17T11:28:28.324Z,26.7
2018-08-17T11:29:30.379Z,26.9
2018-08-17T11:30:32.424Z,26.9
2018-08-17T11:31:34.486Z,26.9
2018-08-17T11:32:36.541Z,27.3
2018-08-17T11:33:38.592Z,27
2018-08-17T11:34:40.645Z,26.9
2018-08-17T11:35:42.715Z,26.9
2018-08-17T11:36:44.767Z,26.5
2018-08-17T11:37:46.820Z,26.5
2018-08-17T11:38:48.875Z,26.4
2018-08-17T11:39:51.326Z,26.2
2018-08-17T11:40:53.382Z,26.1
2018-08-17T11:41:55.428Z,27
2018-08-17T11:42:57.799Z,27
2018-08-17T11:43:59.852Z,26.6
2018-08-17T11:45:02.188Z,26.6
2018-08-17T11:46:04.529Z,26.5
2018-08-17T11:47:06.572Z,26.5
2018-08-17T11:48:08.630Z,26.5
2018-08-17T11:49:11.066Z,26.6
2018-08-17T11:50:13.129Z,26.9
2018-08-17T11:51:15.170Z,27
2018-08-17T11:52:17.237Z,27.2
2018-08-17T11:53:19.291Z,27
2018-08-17T11:54:21.353Z,26.8
2018-08-17T11:55:23.795Z,26.7
2018-08-17T11:56:25.838Z,26.6
2018-08-17T11:57:27.888Z,26.5
2018-08-17T11:58:29.937Z,26.9
2018-08-17T11:59:32.001Z,27
2018-08-17T12:00:34.349Z,27
2018-08-17T12:01:36.402Z,27.1
2018-08-17T12:02:38.751Z,27.3
2018-08-17T12:03:40.790Z,27.4
2018-08-17T12:04:43.143Z,27.6
2018-08-17T12:05:45.190Z,27.5
2018-08-17T12:06:47.674Z,27.4
2018-08-17T12:07:50.029Z,27.3
2018-08-17T12:08:52.093Z,27.3
2018-08-17T12:09:54.141Z,27.5
2018-08-17T12:10:56.193Z,27.3
2018-08-17T12:11:58.247Z,27.8
2018-08-17T12:13:00.293Z,27.7
2018-08-17T12:14:02.341Z,27.9
2018-08-17T12:15:04.676Z,28
2018-08-17T12:16:06.741Z,27.6
2018-08-17T12:17:08.789Z,27.4
2018-08-17T12:18:11.128Z,26.8
2018-08-17T12:19:13.179Z,27
2018-08-17T12:20:15.218Z,27
2018-08-17T12:21:17.567Z,27.1
2018-08-17T12:22:19.621Z,27.2
2018-08-17T12:23:21.702Z,26.9
2018-08-17T12:24:25.026Z,26.8
2018-08-17T12:25:27.204Z,27.2
2018-08-17T12:26:29.539Z,27.6
2018-08-17T12:27:31.596Z,27.5
2018-08-17T12:28:33.657Z,27.5
2018-08-17T12:29:35.695Z,27.8
2018-08-17T12:30:38.378Z,27.8
2018-08-17T12:31:40.425Z,27.6
2018-08-17T12:32:42.785Z,28
2018-08-17T12:33:44.821Z,28
2018-08-17T12:34:46.877Z,27.3
2018-08-17T12:35:48.935Z,27.4
2018-08-17T12:36:50.977Z,28
2018-08-17T12:37:53.040Z,27.8
2018-08-17T12:38:55.093Z,28.4
2018-08-17T12:39:57.750Z,28.2
2018-08-17T12:41:00.090Z,27.9
2018-08-17T12:42:02.161Z,27.8
2018-08-17T12:43:04.494Z,27.3
2018-08-17T12:44:06.552Z,27.6
2018-08-17T12:45:08.603Z,27
2018-08-17T12:46:10.643Z,26.8
2018-08-17T12:47:12.698Z,26.6
2018-08-17T12:48:14.757Z,26.8
2018-08-17T12:49:16.798Z,27
2018-08-17T12:50:18.855Z,27.4
2018-08-17T12:51:20.911Z,27.3
2018-08-17T12:52:23.062Z,27.4
2018-08-17T12:53:25.012Z,27.7
2018-08-17T12:54:27.358Z,27.4
2018-08-17T12:55:29.407Z,27.5
2018-08-17T12:56:31.465Z,27.2
2018-08-17T12:57:33.511Z,26.8
2018-08-17T12:58:35.574Z,26.9
2018-08-17T12:59:37.627Z,27.2
2018-08-17T13:00:39.682Z,26.8
2018-08-17T13:01:41.748Z,26.7
2018-08-17T13:02:43.791Z,27.1
2018-08-17T13:03:45.845Z,27.3
2018-08-17T13:04:55.020Z,27.1
2018-08-17T13:06:06.392Z,26.8
2018-08-17T13:07:08.806Z,26.6
2018-08-17T13:08:10.860Z,26.3
2018-08-17T13:09:13.271Z,26.7
2018-08-17T13:10:15.314Z,26.6
2018-08-17T13:11:17.377Z,26.6
2018-08-17T13:12:19.712Z,26.4
2018-08-17T13:13:21.757Z,26.3
2018-08-17T13:14:23.805Z,26.4
2018-08-17T13:15:25.867Z,25.8
2018-08-17T13:16:27.920Z,25.4
2018-08-17T13:17:30.273Z,25.1
2018-08-17T13:18:32.326Z,24.9
2018-08-17T13:19:34.652Z,25
2018-08-17T13:20:36.703Z,25
2018-08-17T13:21:38.761Z,24.6
2018-08-17T13:22:40.797Z,24.7
2018-08-17T13:23:42.850Z,24.5
2018-08-17T13:24:44.901Z,24.6
2018-08-17T13:25:47.610Z,24.7
2018-08-17T13:26:49.674Z,24.6
2018-08-17T13:27:52.003Z,24.7
2018-08-17T13:28:54.047Z,24.8
2018-08-17T13:29:57.669Z,24.9
2018-08-17T13:30:59.607Z,24.8
2018-08-17T13:32:02.417Z,24.6
2018-08-17T13:33:04.462Z,24.3
2018-08-17T13:34:06.509Z,24.4
2018-08-17T13:35:08.826Z,24.5
2018-08-17T13:36:11.503Z,24.6
2018-08-17T13:37:13.715Z,24.3
2018-08-17T13:38:15.769Z,24.4
2018-08-17T13:39:17.804Z,24.3
2018-08-17T13:40:19.863Z,24.2
2018-08-17T13:41:21.912Z,24.3
2018-08-17T13:42:24.092Z,24.1
2018-08-17T13:43:26.016Z,24.2
2018-08-17T13:44:28.053Z,24.2
2018-08-17T13:45:30.093Z,24.2
2018-08-17T13:46:32.147Z,24.2
2018-08-17T13:47:34.189Z,24.2
2018-08-17T13:48:36.652Z,24.1
2018-08-17T13:49:38.656Z,24.1
2018-08-17T13:50:40.704Z,24
2018-08-17T13:51:42.750Z,24